sensor_id;sensor_type;location;lat;lon;timestamp;temperature;humidity
14006;DHT22;7078;51.542;7.314;2023-07-20T00:01:14;16.30;99.90
14006;DHT22;7078;51.542;7.314;2023-07-20T00:03:40;16.30;99.90
14006;DHT22;7078;51.542;7.314;2023-07-20T00:06:05;16.30;99.90
14006;DHT22;7078;51.542;7.314;2023-07-20T00:08:31;16.20;99.90
14006;DHT22;7078;51.542;7.314;2023-07-20T00:10:56;16.30;99.90
14006;DHT22;7078;51.542;7.314;2023-07-20T00:13:22;16.30;99.90
14006;DHT22;7078;51.542;7.314;2023-07-20T00:15:48;16.30;99.90
14006;DHT22;7078;51.542;7.314;2023-07-20T00:18:13;16.30;99.90
14006;DHT22;7078;51.542;7.314;2023-07-20T00:20:39;16.30;99.90
14006;DHT22;7078;51.542;7.314;2023-07-20T00:23:05;16.30;99.90
14006;DHT22;7078;51.542;7.314;2023-07-20T00:25:31;16.40;99.90
14006;DHT22;7078;51.542;7.314;2023-07-20T00:27:57;16.20;99.90
14006;DHT22;7078;51.542;7.314;2023-07-20T00:30:22;16.30;99.90
14006;DHT22;7078;51.542;7.314;2023-07-20T00:32:48;16.40;99.90
14006;DHT22;7078;51.542;7.314;2023-07-20T00:35:13;16.40;99.90
14006;DHT22;7078;51.542;7.314;2023-07-20T00:37:39;16.30;99.90
14006;DHT22;7078;51.542;7.314;2023-07-20T00:40:05;16.40;99.90
14006;DHT22;7078;51.542;7.314;2023-07-20T00:42:32;16.40;99.90
14006;DHT22;7078;51.542;7.314;2023-07-20T00:44:58;16.40;99.90
14006;DHT22;7078;51.542;7.314;2023-07-20T00:47:24;16.30;99.90
14006;DHT22;7078;51.542;7.314;2023-07-20T00:49:50;16.30;99.90
14006;DHT22;7078;51.542;7.314;2023-07-20T00:52:16;16.30;99.90
14006;DHT22;7078;51.542;7.314;2023-07-20T00:54:44;16.30;99.90
14006;DHT22;7078;51.542;7.314;2023-07-20T00:57:09;16.30;99.90
14006;DHT22;7078;51.542;7.314;2023-07-20T00:59:35;16.30;99.90
14006;DHT22;7078;51.542;7.314;2023-07-20T01:02:01;16.30;99.90
14006;DHT22;7078;51.542;7.314;2023-07-20T01:04:27;16.50;99.90
14006;DHT22;7078;51.542;7.314;2023-07-20T01:07:13;16.30;99.90
14006;DHT22;7078;51.542;7.314;2023-07-20T01:09:44;16.30;99.90
14006;DHT22;7078;51.542;7.314;2023-07-20T01:12:22;16.30;99.90
14006;DHT22;7078;51.542;7.314;2023-07-20T01:14:49;16.30;99.90
14006;DHT22;7078;51.542;7.314;2023-07-20T01:17:14;16.30;99.90
14006;DHT22;7078;51.542;7.314;2023-07-20T01:19:40;16.30;99.90
14006;DHT22;7078;51.542;7.314;2023-07-20T01:25:09;16.30;99.90
14006;DHT22;7078;51.542;7.314;2023-07-20T01:33:06;16.20;99.90
14006;DHT22;7078;51.542;7.314;2023-07-20T01:35:32;16.20;99.90
14006;DHT22;7078;51.542;7.314;2023-07-20T01:37:59;16.10;99.90
14006;DHT22;7078;51.542;7.314;2023-07-20T01:40:25;16.20;99.90
14006;DHT22;7078;51.542;7.314;2023-07-20T01:42:52;16.10;99.90
14006;DHT22;7078;51.542;7.314;2023-07-20T01:45:18;16.10;99.90
14006;DHT22;7078;51.542;7.314;2023-07-20T01:47:44;16.10;99.90
14006;DHT22;7078;51.542;7.314;2023-07-20T01:50:10;16.10;99.90
14006;DHT22;7078;51.542;7.314;2023-07-20T01:52:35;16.00;99.90
14006;DHT22;7078;51.542;7.314;2023-07-20T01:55:01;16.00;99.90
14006;DHT22;7078;51.542;7.314;2023-07-20T01:57:26;16.00;99.90
14006;DHT22;7078;51.542;7.314;2023-07-20T01:59:52;15.90;99.90
14006;DHT22;7078;51.542;7.314;2023-07-20T02:02:18;15.90;99.90
14006;DHT22;7078;51.542;7.314;2023-07-20T02:04:44;15.80;99.90
14006;DHT22;7078;51.542;7.314;2023-07-20T02:07:09;15.90;99.90
14006;DHT22;7078;51.542;7.314;2023-07-20T02:09:35;16.00;99.90
14006;DHT22;7078;51.542;7.314;2023-07-20T02:12:00;15.90;99.90
14006;DHT22;7078;51.542;7.314;2023-07-20T02:14:26;15.90;99.90
14006;DHT22;7078;51.542;7.314;2023-07-20T02:16:51;15.80;99.90
14006;DHT22;7078;51.542;7.314;2023-07-20T02:19:18;15.80;99.90
14006;DHT22;7078;51.542;7.314;2023-07-20T02:21:43;15.80;99.90
14006;DHT22;7078;51.542;7.314;2023-07-20T02:24:09;15.80;99.90
14006;DHT22;7078;51.542;7.314;2023-07-20T02:26:34;15.80;99.90
14006;DHT22;7078;51.542;7.314;2023-07-20T02:29:00;15.80;99.90
14006;DHT22;7078;51.542;7.314;2023-07-20T02:31:25;15.90;99.90
14006;DHT22;7078;51.542;7.314;2023-07-20T02:33:51;15.90;99.90
14006;DHT22;7078;51.542;7.314;2023-07-20T02:36:16;15.90;99.90
14006;DHT22;7078;51.542;7.314;2023-07-20T02:38:43;15.90;99.90
14006;DHT22;7078;51.542;7.314;2023-07-20T02:41:08;15.90;99.90
14006;DHT22;7078;51.542;7.314;2023-07-20T02:43:34;16.00;99.90
14006;DHT22;7078;51.542;7.314;2023-07-20T02:45:59;16.00;99.90
14006;DHT22;7078;51.542;7.314;2023-07-20T02:48:25;15.90;99.90
14006;DHT22;7078;51.542;7.314;2023-07-20T02:50:50;15.90;99.90
14006;DHT22;7078;51.542;7.314;2023-07-20T02:53:16;15.80;99.90
14006;DHT22;7078;51.542;7.314;2023-07-20T02:55:41;15.70;99.90
14006;DHT22;7078;51.542;7.314;2023-07-20T02:58:07;15.70;99.90
14006;DHT22;7078;51.542;7.314;2023-07-20T03:00:33;15.70;99.90
14006;DHT22;7078;51.542;7.314;2023-07-20T03:02:58;15.70;99.90
14006;DHT22;7078;51.542;7.314;2023-07-20T03:05:24;15.70;99.90
14006;DHT22;7078;51.542;7.314;2023-07-20T03:07:51;15.60;99.90
14006;DHT22;7078;51.542;7.314;2023-07-20T03:10:16;15.70;99.90
14006;DHT22;7078;51.542;7.314;2023-07-20T03:12:42;15.70;99.90
14006;DHT22;7078;51.542;7.314;2023-07-20T03:15:08;15.70;99.90
14006;DHT22;7078;51.542;7.314;2023-07-20T03:17:34;15.70;99.90
14006;DHT22;7078;51.542;7.314;2023-07-20T03:20:00;15.70;99.90
14006;DHT22;7078;51.542;7.314;2023-07-20T03:22:26;15.70;99.90
14006;DHT22;7078;51.542;7.314;2023-07-20T03:24:51;15.60;99.90
14006;DHT22;7078;51.542;7.314;2023-07-20T03:27:18;15.60;99.90
14006;DHT22;7078;51.542;7.314;2023-07-20T03:29:43;15.60;99.90
14006;DHT22;7078;51.542;7.314;2023-07-20T03:32:09;15.60;99.90
14006;DHT22;7078;51.542;7.314;2023-07-20T03:34:36;15.60;99.90
14006;DHT22;7078;51.542;7.314;2023-07-20T03:37:01;15.70;99.90
14006;DHT22;7078;51.542;7.314;2023-07-20T03:39:30;15.70;99.90
14006;DHT22;7078;51.542;7.314;2023-07-20T03:41:55;15.70;99.90
14006;DHT22;7078;51.542;7.314;2023-07-20T03:44:21;15.70;99.90
14006;DHT22;7078;51.542;7.314;2023-07-20T03:46:46;15.70;99.90
14006;DHT22;7078;51.542;7.314;2023-07-20T03:49:12;15.70;99.90
14006;DHT22;7078;51.542;7.314;2023-07-20T03:51:37;15.70;99.90
14006;DHT22;7078;51.542;7.314;2023-07-20T03:54:03;15.80;99.90
14006;DHT22;7078;51.542;7.314;2023-07-20T03:56:28;15.80;99.90
14006;DHT22;7078;51.542;7.314;2023-07-20T03:58:54;15.80;99.90
14006;DHT22;7078;51.542;7.314;2023-07-20T04:01:20;15.80;99.90
14006;DHT22;7078;51.542;7.314;2023-07-20T04:03:45;15.80;99.90
14006;DHT22;7078;51.542;7.314;2023-07-20T04:06:11;15.80;99.90
14006;DHT22;7078;51.542;7.314;2023-07-20T04:08:36;15.80;99.90
14006;DHT22;7078;51.542;7.314;2023-07-20T04:11:02;15.80;99.90
14006;DHT22;7078;51.542;7.314;2023-07-20T04:13:28;15.80;99.90
14006;DHT22;7078;51.542;7.314;2023-07-20T04:15:54;15.80;99.90
14006;DHT22;7078;51.542;7.314;2023-07-20T04:18:20;15.70;99.90
14006;DHT22;7078;51.542;7.314;2023-07-20T04:20:46;15.80;99.90
14006;DHT22;7078;51.542;7.314;2023-07-20T04:23:12;15.70;99.90
14006;DHT22;7078;51.542;7.314;2023-07-20T04:25:39;15.80;99.90
14006;DHT22;7078;51.542;7.314;2023-07-20T04:28:08;15.80;99.90
14006;DHT22;7078;51.542;7.314;2023-07-20T04:30:35;15.80;99.90
14006;DHT22;7078;51.542;7.314;2023-07-20T04:33:02;15.80;99.90
14006;DHT22;7078;51.542;7.314;2023-07-20T04:38:15;15.80;99.90
14006;DHT22;7078;51.542;7.314;2023-07-20T04:40:46;15.90;99.90
14006;DHT22;7078;51.542;7.314;2023-07-20T04:43:12;15.90;99.90
14006;DHT22;7078;51.542;7.314;2023-07-20T04:45:38;15.90;99.90
14006;DHT22;7078;51.542;7.314;2023-07-20T04:48:09;15.90;99.90
14006;DHT22;7078;51.542;7.314;2023-07-20T04:50:36;15.90;99.90
14006;DHT22;7078;51.542;7.314;2023-07-20T04:53:02;15.90;99.90
14006;DHT22;7078;51.542;7.314;2023-07-20T04:55:28;15.90;99.90
14006;DHT22;7078;51.542;7.314;2023-07-20T04:57:53;16.00;99.90
14006;DHT22;7078;51.542;7.314;2023-07-20T05:00:19;16.00;99.90
14006;DHT22;7078;51.542;7.314;2023-07-20T05:02:45;16.10;99.90
14006;DHT22;7078;51.542;7.314;2023-07-20T05:05:12;16.20;99.90
14006;DHT22;7078;51.542;7.314;2023-07-20T05:07:38;16.10;99.90
14006;DHT22;7078;51.542;7.314;2023-07-20T05:10:04;16.20;99.90
14006;DHT22;7078;51.542;7.314;2023-07-20T05:12:30;16.20;99.90
14006;DHT22;7078;51.542;7.314;2023-07-20T05:14:55;16.20;99.90
14006;DHT22;7078;51.542;7.314;2023-07-20T05:17:21;16.20;99.90
14006;DHT22;7078;51.542;7.314;2023-07-20T05:19:46;16.20;99.90
14006;DHT22;7078;51.542;7.314;2023-07-20T05:22:13;16.20;99.90
14006;DHT22;7078;51.542;7.314;2023-07-20T05:24:39;16.20;99.90
14006;DHT22;7078;51.542;7.314;2023-07-20T05:27:05;16.20;99.90
14006;DHT22;7078;51.542;7.314;2023-07-20T05:29:30;16.20;99.90
14006;DHT22;7078;51.542;7.314;2023-07-20T05:31:57;16.20;99.90
14006;DHT22;7078;51.542;7.314;2023-07-20T05:34:22;16.20;99.90
14006;DHT22;7078;51.542;7.314;2023-07-20T05:36:48;16.20;99.90
14006;DHT22;7078;51.542;7.314;2023-07-20T05:39:14;16.10;99.90
14006;DHT22;7078;51.542;7.314;2023-07-20T05:41:40;16.10;99.90
14006;DHT22;7078;51.542;7.314;2023-07-20T05:44:05;16.20;99.90
14006;DHT22;7078;51.542;7.314;2023-07-20T05:46:31;16.20;99.90
14006;DHT22;7078;51.542;7.314;2023-07-20T05:48:57;16.30;99.90
14006;DHT22;7078;51.542;7.314;2023-07-20T05:51:22;16.40;99.90
14006;DHT22;7078;51.542;7.314;2023-07-20T05:53:48;16.60;99.90
14006;DHT22;7078;51.542;7.314;2023-07-20T05:56:14;16.70;99.90
14006;DHT22;7078;51.542;7.314;2023-07-20T05:58:39;16.80;99.90
14006;DHT22;7078;51.542;7.314;2023-07-20T06:01:05;16.80;99.90
14006;DHT22;7078;51.542;7.314;2023-07-20T06:03:32;16.80;99.90
14006;DHT22;7078;51.542;7.314;2023-07-20T06:06:01;16.70;99.90
14006;DHT22;7078;51.542;7.314;2023-07-20T06:08:28;16.80;99.90
14006;DHT22;7078;51.542;7.314;2023-07-20T06:10:54;16.80;99.90
14006;DHT22;7078;51.542;7.314;2023-07-20T06:13:20;16.90;99.90
14006;DHT22;7078;51.542;7.314;2023-07-20T06:15:45;16.90;99.90
14006;DHT22;7078;51.542;7.314;2023-07-20T06:18:12;17.00;99.90
14006;DHT22;7078;51.542;7.314;2023-07-20T06:20:38;17.10;99.90
14006;DHT22;7078;51.542;7.314;2023-07-20T06:23:03;17.10;99.90
14006;DHT22;7078;51.542;7.314;2023-07-20T06:25:29;17.10;99.90
14006;DHT22;7078;51.542;7.314;2023-07-20T06:27:55;17.20;99.90
14006;DHT22;7078;51.542;7.314;2023-07-20T06:30:21;17.20;99.90
14006;DHT22;7078;51.542;7.314;2023-07-20T06:32:47;17.20;99.90
14006;DHT22;7078;51.542;7.314;2023-07-20T06:35:13;17.30;99.90
14006;DHT22;7078;51.542;7.314;2023-07-20T06:37:38;17.40;99.90
14006;DHT22;7078;51.542;7.314;2023-07-20T06:40:04;17.50;99.90
14006;DHT22;7078;51.542;7.314;2023-07-20T06:42:30;17.60;99.90
14006;DHT22;7078;51.542;7.314;2023-07-20T06:44:57;17.60;99.90
14006;DHT22;7078;51.542;7.314;2023-07-20T06:47:23;17.60;99.90
14006;DHT22;7078;51.542;7.314;2023-07-20T06:49:48;17.70;99.90
14006;DHT22;7078;51.542;7.314;2023-07-20T06:52:15;17.80;99.90
14006;DHT22;7078;51.542;7.314;2023-07-20T06:54:40;18.00;99.90
14006;DHT22;7078;51.542;7.314;2023-07-20T06:57:06;18.20;99.90
14006;DHT22;7078;51.542;7.314;2023-07-20T06:59:32;18.20;99.90
14006;DHT22;7078;51.542;7.314;2023-07-20T07:01:57;18.10;99.90
14006;DHT22;7078;51.542;7.314;2023-07-20T07:04:23;18.20;99.90
14006;DHT22;7078;51.542;7.314;2023-07-20T07:06:48;18.30;99.90
14006;DHT22;7078;51.542;7.314;2023-07-20T07:09:14;18.40;99.90
14006;DHT22;7078;51.542;7.314;2023-07-20T07:11:39;18.70;99.90
14006;DHT22;7078;51.542;7.314;2023-07-20T07:14:05;18.90;99.90
14006;DHT22;7078;51.542;7.314;2023-07-20T07:16:30;18.90;99.90
14006;DHT22;7078;51.542;7.314;2023-07-20T07:18:56;18.80;99.90
14006;DHT22;7078;51.542;7.314;2023-07-20T07:21:21;18.60;99.90
14006;DHT22;7078;51.542;7.314;2023-07-20T07:23:47;18.40;99.90
14006;DHT22;7078;51.542;7.314;2023-07-20T07:26:13;18.20;99.90
14006;DHT22;7078;51.542;7.314;2023-07-20T07:28:38;18.00;99.90
14006;DHT22;7078;51.542;7.314;2023-07-20T07:31:05;17.80;99.90
14006;DHT22;7078;51.542;7.314;2023-07-20T07:33:31;17.50;99.90
14006;DHT22;7078;51.542;7.314;2023-07-20T07:35:57;17.30;99.90
14006;DHT22;7078;51.542;7.314;2023-07-20T07:38:23;17.20;99.90
14006;DHT22;7078;51.542;7.314;2023-07-20T07:40:48;17.10;99.90
14006;DHT22;7078;51.542;7.314;2023-07-20T07:43:14;17.10;99.90
14006;DHT22;7078;51.542;7.314;2023-07-20T07:45:40;17.10;99.90
14006;DHT22;7078;51.542;7.314;2023-07-20T07:48:07;17.10;99.90
14006;DHT22;7078;51.542;7.314;2023-07-20T07:50:33;17.30;99.90
14006;DHT22;7078;51.542;7.314;2023-07-20T07:52:59;17.40;99.90
14006;DHT22;7078;51.542;7.314;2023-07-20T07:55:25;17.60;99.90
14006;DHT22;7078;51.542;7.314;2023-07-20T07:57:52;18.00;99.90
14006;DHT22;7078;51.542;7.314;2023-07-20T08:00:18;18.40;99.90
14006;DHT22;7078;51.542;7.314;2023-07-20T08:02:45;18.70;99.90
14006;DHT22;7078;51.542;7.314;2023-07-20T08:05:11;18.80;99.90
14006;DHT22;7078;51.542;7.314;2023-07-20T08:07:37;18.80;99.90
14006;DHT22;7078;51.542;7.314;2023-07-20T08:10:04;18.70;99.90
14006;DHT22;7078;51.542;7.314;2023-07-20T08:12:29;18.50;99.90
14006;DHT22;7078;51.542;7.314;2023-07-20T08:14:55;18.40;99.90
14006;DHT22;7078;51.542;7.314;2023-07-20T08:17:20;18.20;99.90
14006;DHT22;7078;51.542;7.314;2023-07-20T08:19:46;18.10;99.90
14006;DHT22;7078;51.542;7.314;2023-07-20T08:22:12;18.00;99.90
14006;DHT22;7078;51.542;7.314;2023-07-20T08:24:41;17.90;99.90
14006;DHT22;7078;51.542;7.314;2023-07-20T08:27:07;17.90;99.90
14006;DHT22;7078;51.542;7.314;2023-07-20T08:29:34;18.10;99.90
14006;DHT22;7078;51.542;7.314;2023-07-20T08:31:59;18.20;99.90
14006;DHT22;7078;51.542;7.314;2023-07-20T08:34:25;18.20;99.90
14006;DHT22;7078;51.542;7.314;2023-07-20T08:36:50;18.10;99.90
14006;DHT22;7078;51.542;7.314;2023-07-20T08:39:16;18.20;99.90
14006;DHT22;7078;51.542;7.314;2023-07-20T08:41:43;18.20;99.90
14006;DHT22;7078;51.542;7.314;2023-07-20T08:44:10;18.20;99.90
14006;DHT22;7078;51.542;7.314;2023-07-20T08:46:38;18.10;99.90
14006;DHT22;7078;51.542;7.314;2023-07-20T08:49:03;18.20;99.90
14006;DHT22;7078;51.542;7.314;2023-07-20T08:51:30;18.40;99.90
14006;DHT22;7078;51.542;7.314;2023-07-20T08:53:56;18.70;99.90
14006;DHT22;7078;51.542;7.314;2023-07-20T08:56:24;18.90;99.90
14006;DHT22;7078;51.542;7.314;2023-07-20T08:58:52;19.10;99.90
14006;DHT22;7078;51.542;7.314;2023-07-20T09:01:19;19.30;99.90
14006;DHT22;7078;51.542;7.314;2023-07-20T09:03:45;19.50;99.90
14006;DHT22;7078;51.542;7.314;2023-07-20T09:06:12;19.70;99.90
14006;DHT22;7078;51.542;7.314;2023-07-20T09:08:38;19.90;99.90
14006;DHT22;7078;51.542;7.314;2023-07-20T09:11:04;20.10;99.90
14006;DHT22;7078;51.542;7.314;2023-07-20T09:13:29;20.30;99.90
14006;DHT22;7078;51.542;7.314;2023-07-20T09:15:55;20.30;99.90
14006;DHT22;7078;51.542;7.314;2023-07-20T09:18:28;20.40;99.90
14006;DHT22;7078;51.542;7.314;2023-07-20T09:21:04;20.50;99.90
14006;DHT22;7078;51.542;7.314;2023-07-20T09:23:35;20.60;99.90
14006;DHT22;7078;51.542;7.314;2023-07-20T09:26:09;20.70;99.90
14006;DHT22;7078;51.542;7.314;2023-07-20T09:28:47;20.90;99.90
14006;DHT22;7078;51.542;7.314;2023-07-20T09:31:20;21.00;99.90
14006;DHT22;7078;51.542;7.314;2023-07-20T09:33:47;20.80;99.90
14006;DHT22;7078;51.542;7.314;2023-07-20T09:36:13;20.50;99.90
14006;DHT22;7078;51.542;7.314;2023-07-20T09:38:42;20.50;99.90
14006;DHT22;7078;51.542;7.314;2023-07-20T09:41:12;20.30;99.90
14006;DHT22;7078;51.542;7.314;2023-07-20T09:43:39;20.20;99.90
14006;DHT22;7078;51.542;7.314;2023-07-20T09:46:05;20.40;99.90
14006;DHT22;7078;51.542;7.314;2023-07-20T09:48:30;20.60;99.90
14006;DHT22;7078;51.542;7.314;2023-07-20T09:50:56;20.90;99.90
14006;DHT22;7078;51.542;7.314;2023-07-20T09:53:24;21.00;99.90
14006;DHT22;7078;51.542;7.314;2023-07-20T09:55:52;21.10;99.90
14006;DHT22;7078;51.542;7.314;2023-07-20T09:58:18;21.10;99.90
14006;DHT22;7078;51.542;7.314;2023-07-20T10:00:45;21.10;99.90
14006;DHT22;7078;51.542;7.314;2023-07-20T10:03:16;20.90;99.90
14006;DHT22;7078;51.542;7.314;2023-07-20T10:05:52;20.80;99.90
14006;DHT22;7078;51.542;7.314;2023-07-20T10:08:20;20.60;99.90
14006;DHT22;7078;51.542;7.314;2023-07-20T10:10:48;20.40;99.90
14006;DHT22;7078;51.542;7.314;2023-07-20T10:13:17;20.30;99.90
14006;DHT22;7078;51.542;7.314;2023-07-20T10:15:46;20.70;99.90
14006;DHT22;7078;51.542;7.314;2023-07-20T10:20:41;20.90;99.90
14006;DHT22;7078;51.542;7.314;2023-07-20T10:23:08;20.80;99.90
14006;DHT22;7078;51.542;7.314;2023-07-20T10:25:34;20.90;99.90
14006;DHT22;7078;51.542;7.314;2023-07-20T10:28:07;20.90;99.80
14006;DHT22;7078;51.542;7.314;2023-07-20T10:30:34;21.20;99.90
14006;DHT22;7078;51.542;7.314;2023-07-20T10:33:04;21.30;96.00
14006;DHT22;7078;51.542;7.314;2023-07-20T10:35:29;21.40;97.30
14006;DHT22;7078;51.542;7.314;2023-07-20T10:38:01;21.70;95.20
14006;DHT22;7078;51.542;7.314;2023-07-20T10:40:33;21.70;94.20
14006;DHT22;7078;51.542;7.314;2023-07-20T10:43:06;21.60;94.40
14006;DHT22;7078;51.542;7.314;2023-07-20T10:45:35;21.40;94.90
14006;DHT22;7078;51.542;7.314;2023-07-20T10:48:05;21.40;94.30
14006;DHT22;7078;51.542;7.314;2023-07-20T10:50:33;21.60;94.60
14006;DHT22;7078;51.542;7.314;2023-07-20T10:53:10;21.80;93.80
14006;DHT22;7078;51.542;7.314;2023-07-20T10:55:35;21.80;93.70
14006;DHT22;7078;51.542;7.314;2023-07-20T10:58:11;21.90;93.70
14006;DHT22;7078;51.542;7.314;2023-07-20T11:00:38;22.00;91.80
14006;DHT22;7078;51.542;7.314;2023-07-20T11:03:04;22.10;92.00
14006;DHT22;7078;51.542;7.314;2023-07-20T11:05:36;22.20;92.50
14006;DHT22;7078;51.542;7.314;2023-07-20T11:08:04;22.30;90.80
14006;DHT22;7078;51.542;7.314;2023-07-20T11:10:30;22.50;91.10
14006;DHT22;7078;51.542;7.314;2023-07-20T11:13:19;22.50;87.70
14006;DHT22;7078;51.542;7.314;2023-07-20T11:18:12;22.30;90.00
14006;DHT22;7078;51.542;7.314;2023-07-20T11:20:37;22.20;90.50
14006;DHT22;7078;51.542;7.314;2023-07-20T11:23:03;22.30;90.90
14006;DHT22;7078;51.542;7.314;2023-07-20T11:25:39;22.40;90.20
14006;DHT22;7078;51.542;7.314;2023-07-20T11:28:09;22.60;87.20
14006;DHT22;7078;51.542;7.314;2023-07-20T11:30:36;22.60;82.90
14006;DHT22;7078;51.542;7.314;2023-07-20T11:33:02;22.80;83.30
14006;DHT22;7078;51.542;7.314;2023-07-20T11:35:28;22.80;80.30
14006;DHT22;7078;51.542;7.314;2023-07-20T11:37:54;22.80;83.30
14006;DHT22;7078;51.542;7.314;2023-07-20T11:40:20;22.90;82.00
14006;DHT22;7078;51.542;7.314;2023-07-20T11:42:47;22.90;80.60
14006;DHT22;7078;51.542;7.314;2023-07-20T11:45:12;22.90;82.00
14006;DHT22;7078;51.542;7.314;2023-07-20T11:47:41;22.80;78.60
14006;DHT22;7078;51.542;7.314;2023-07-20T11:50:08;22.80;79.70
14006;DHT22;7078;51.542;7.314;2023-07-20T11:52:34;22.90;81.50
14006;DHT22;7078;51.542;7.314;2023-07-20T11:55:00;23.00;80.80
14006;DHT22;7078;51.542;7.314;2023-07-20T11:57:26;23.00;78.80
14006;DHT22;7078;51.542;7.314;2023-07-20T12:00:01;23.00;79.40
14006;DHT22;7078;51.542;7.314;2023-07-20T12:02:29;23.20;80.20
14006;DHT22;7078;51.542;7.314;2023-07-20T12:04:55;23.20;77.30
14006;DHT22;7078;51.542;7.314;2023-07-20T12:07:21;23.40;79.00
14006;DHT22;7078;51.542;7.314;2023-07-20T12:12:34;23.50;78.40
14006;DHT22;7078;51.542;7.314;2023-07-20T12:15:21;23.60;74.30
14006;DHT22;7078;51.542;7.314;2023-07-20T12:17:52;23.70;75.50
14006;DHT22;7078;51.542;7.314;2023-07-20T12:20:44;23.70;75.10
14006;DHT22;7078;51.542;7.314;2023-07-20T12:23:12;23.50;74.10
14006;DHT22;7078;51.542;7.314;2023-07-20T12:25:42;23.70;72.50
14006;DHT22;7078;51.542;7.314;2023-07-20T12:28:15;23.90;72.40
14006;DHT22;7078;51.542;7.314;2023-07-20T12:30:42;23.90;74.80
14006;DHT22;7078;51.542;7.314;2023-07-20T12:33:08;24.00;74.80
14006;DHT22;7078;51.542;7.314;2023-07-20T12:35:34;24.00;75.50
14006;DHT22;7078;51.542;7.314;2023-07-20T12:38:00;23.90;77.00
14006;DHT22;7078;51.542;7.314;2023-07-20T12:40:26;23.90;76.80
14006;DHT22;7078;51.542;7.314;2023-07-20T12:42:52;24.00;76.80
14006;DHT22;7078;51.542;7.314;2023-07-20T12:45:17;24.20;70.70
14006;DHT22;7078;51.542;7.314;2023-07-20T12:47:43;24.30;69.20
14006;DHT22;7078;51.542;7.314;2023-07-20T12:50:12;24.30;70.00
14006;DHT22;7078;51.542;7.314;2023-07-20T12:52:39;24.30;71.20
14006;DHT22;7078;51.542;7.314;2023-07-20T12:55:09;24.20;71.60
14006;DHT22;7078;51.542;7.314;2023-07-20T12:57:36;24.10;74.70
14006;DHT22;7078;51.542;7.314;2023-07-20T13:00:06;24.30;71.50
14006;DHT22;7078;51.542;7.314;2023-07-20T13:02:33;24.20;72.20
14006;DHT22;7078;51.542;7.314;2023-07-20T13:04:59;24.10;72.40
14006;DHT22;7078;51.542;7.314;2023-07-20T13:07:32;24.10;71.50
14006;DHT22;7078;51.542;7.314;2023-07-20T13:10:01;24.10;70.70
14006;DHT22;7078;51.542;7.314;2023-07-20T13:12:28;23.70;73.70
14006;DHT22;7078;51.542;7.314;2023-07-20T13:14:54;23.60;75.70
14006;DHT22;7078;51.542;7.314;2023-07-20T13:17:21;23.60;75.40
14006;DHT22;7078;51.542;7.314;2023-07-20T13:19:46;23.70;75.30
14006;DHT22;7078;51.542;7.314;2023-07-20T13:22:12;23.80;73.50
14006;DHT22;7078;51.542;7.314;2023-07-20T13:24:39;23.80;71.50
14006;DHT22;7078;51.542;7.314;2023-07-20T13:27:04;23.80;71.70
14006;DHT22;7078;51.542;7.314;2023-07-20T13:29:30;24.10;72.70
14006;DHT22;7078;51.542;7.314;2023-07-20T13:31:57;24.50;71.60
14006;DHT22;7078;51.542;7.314;2023-07-20T13:34:23;24.60;68.50
14006;DHT22;7078;51.542;7.314;2023-07-20T13:36:49;24.50;71.70
14006;DHT22;7078;51.542;7.314;2023-07-20T13:39:15;24.30;70.80
14006;DHT22;7078;51.542;7.314;2023-07-20T13:41:40;24.10;71.90
14006;DHT22;7078;51.542;7.314;2023-07-20T13:44:06;24.00;72.50
14006;DHT22;7078;51.542;7.314;2023-07-20T13:46:31;23.90;74.70
14006;DHT22;7078;51.542;7.314;2023-07-20T13:48:57;23.90;72.10
14006;DHT22;7078;51.542;7.314;2023-07-20T13:51:22;23.80;72.30
14006;DHT22;7078;51.542;7.314;2023-07-20T13:53:48;23.60;73.40
14006;DHT22;7078;51.542;7.314;2023-07-20T13:56:14;23.60;73.40
14006;DHT22;7078;51.542;7.314;2023-07-20T13:58:39;23.70;71.00
14006;DHT22;7078;51.542;7.314;2023-07-20T14:01:05;23.70;71.30
14006;DHT22;7078;51.542;7.314;2023-07-20T14:03:30;23.70;70.10
14006;DHT22;7078;51.542;7.314;2023-07-20T14:05:56;23.50;72.30
14006;DHT22;7078;51.542;7.314;2023-07-20T14:08:22;23.50;72.40
14006;DHT22;7078;51.542;7.314;2023-07-20T14:10:48;23.30;73.00
14006;DHT22;7078;51.542;7.314;2023-07-20T14:13:13;23.10;74.50
14006;DHT22;7078;51.542;7.314;2023-07-20T14:15:39;23.00;78.10
14006;DHT22;7078;51.542;7.314;2023-07-20T14:18:05;22.90;77.60
14006;DHT22;7078;51.542;7.314;2023-07-20T14:20:31;22.80;76.80
14006;DHT22;7078;51.542;7.314;2023-07-20T14:22:56;22.90;77.00
14006;DHT22;7078;51.542;7.314;2023-07-20T14:25:22;23.20;78.60
14006;DHT22;7078;51.542;7.314;2023-07-20T14:27:47;23.90;75.00
14006;DHT22;7078;51.542;7.314;2023-07-20T14:30:13;24.60;71.90
14006;DHT22;7078;51.542;7.314;2023-07-20T14:32:40;25.20;69.60
14006;DHT22;7078;51.542;7.314;2023-07-20T14:35:06;25.70;65.90
14006;DHT22;7078;51.542;7.314;2023-07-20T14:37:31;25.90;65.50
14006;DHT22;7078;51.542;7.314;2023-07-20T14:39:57;25.60;66.10
14006;DHT22;7078;51.542;7.314;2023-07-20T14:42:22;25.30;67.70
14006;DHT22;7078;51.542;7.314;2023-07-20T14:44:48;24.90;68.00
14006;DHT22;7078;51.542;7.314;2023-07-20T14:47:14;24.60;70.10
14006;DHT22;7078;51.542;7.314;2023-07-20T14:49:39;24.40;70.70
14006;DHT22;7078;51.542;7.314;2023-07-20T14:52:05;24.50;70.00
14006;DHT22;7078;51.542;7.314;2023-07-20T14:54:31;24.60;70.60
14006;DHT22;7078;51.542;7.314;2023-07-20T14:56:56;24.70;70.00
14006;DHT22;7078;51.542;7.314;2023-07-20T14:59:22;24.80;71.90
14006;DHT22;7078;51.542;7.314;2023-07-20T15:01:47;24.80;70.20
14006;DHT22;7078;51.542;7.314;2023-07-20T15:04:14;24.50;68.50
14006;DHT22;7078;51.542;7.314;2023-07-20T15:06:40;24.30;69.20
14006;DHT22;7078;51.542;7.314;2023-07-20T15:09:06;24.20;71.20
14006;DHT22;7078;51.542;7.314;2023-07-20T15:11:32;24.10;72.90
14006;DHT22;7078;51.542;7.314;2023-07-20T15:13:57;23.90;71.50
14006;DHT22;7078;51.542;7.314;2023-07-20T15:16:25;23.70;70.90
14006;DHT22;7078;51.542;7.314;2023-07-20T15:18:51;23.80;72.80
14006;DHT22;7078;51.542;7.314;2023-07-20T15:21:16;23.70;73.60
14006;DHT22;7078;51.542;7.314;2023-07-20T15:23:45;23.90;73.00
14006;DHT22;7078;51.542;7.314;2023-07-20T15:26:11;24.70;73.30
14006;DHT22;7078;51.542;7.314;2023-07-20T15:28:38;25.20;71.10
14006;DHT22;7078;51.542;7.314;2023-07-20T15:31:04;26.10;68.50
14006;DHT22;7078;51.542;7.314;2023-07-20T15:33:31;26.40;66.40
14006;DHT22;7078;51.542;7.314;2023-07-20T15:35:57;26.20;63.10
14006;DHT22;7078;51.542;7.314;2023-07-20T15:38:24;25.70;64.70
14006;DHT22;7078;51.542;7.314;2023-07-20T15:40:49;25.40;66.60
14006;DHT22;7078;51.542;7.314;2023-07-20T15:43:15;25.10;67.00
14006;DHT22;7078;51.542;7.314;2023-07-20T15:45:41;24.80;67.80
14006;DHT22;7078;51.542;7.314;2023-07-20T15:48:07;24.60;69.90
14006;DHT22;7078;51.542;7.314;2023-07-20T15:50:32;24.30;69.30
14006;DHT22;7078;51.542;7.314;2023-07-20T15:52:58;24.50;69.40
14006;DHT22;7078;51.542;7.314;2023-07-20T15:55:23;24.50;71.20
14006;DHT22;7078;51.542;7.314;2023-07-20T15:57:49;24.50;71.50
14006;DHT22;7078;51.542;7.314;2023-07-20T16:00:15;24.40;69.20